Hallton, Pennsylvania
Current Conditions -  °F | °C
As of 4:53 PM on Sunday 23 Nov 2014 (Local Time) from KDUJ Reporting Station
Clear Clear  
Wind Chill: 52°   Ceiling: Unl
Heat Index: 52°   Visibility: 10mi
Dew Point: 35°   Wind: 10mph
Humidity: 53%   Direction: 110°ESE
Pressure: 29.89"   Gusts: NA
Location:  41.3171°N, 79.0119°W
Report Text: KDUJ 232153Z AUTO 11009KT 10SM CLR 11/02 A2989 RMK AO2 SLP125 T01110017
Loading
Personal Weather Stations






























Interactive Weather Map New forecast layout! Learn more

10-Day Weather Forecast

Advertisements
Track Severe Weather on mobile